Terminal Aerodrome Forecast
Issued by NWS

Home | Current Version | Previous Version | Graphics & Text | Print | Product List | Glossary On
Versions: 1 2 3 4 5 6 7 8 9 10 11 12 13
621
FTUS43 KTOP 250520
TAFMHK
TAF
KMHK 250520Z 2506/2606 VRB03KT P6SM VCSH BKN080
     FM251200 01004KT P6SM SCT150
     FM260300 VRB03KT P6SM BKN070=

USA.gov is the U.S. government's official web portal to all federal, state and local government web resources and services.